Time;durP1;ratioP1;P1;durP2;ratioP2;P2;SDS_P1;SDS_P2;PMS_P1;PMS_P2;Temp;Humidity;BMP_temperature;BMP_pressure;BME280_temperature;BME280_humidity;BME280_pressure;Samples;Min_cycle;Max_cycle;Signal;HPM_P1;HPM_P2
2024/04/03 00:00:31;;;;;;;1.20;0.20;;;;;;;9.62;100.00;100614.97;4924522;29;20032;-68
2024/04/03 00:02:58;;;;;;;3.63;0.20;;;;;;;9.60;100.00;100620.31;4922487;29;20546;-68
2024/04/03 00:05:23;;;;;;;2.28;0.20;;;;;;;9.54;100.00;100623.44;4923737;29;20488;-68
2024/04/03 00:07:51;;;;;;;5.40;0.20;;;;;;;9.49;100.00;100623.00;4925538;29;20084;-68
2024/04/03 00:10:17;;;;;;;3.80;0.32;;;;;;;9.42;100.00;100621.94;4923517;29;20051;-69
2024/04/03 00:12:42;;;;;;;2.03;0.30;;;;;;;9.39;100.00;100622.19;4923753;29;20040;-68
2024/04/03 00:15:08;;;;;;;3.60;0.30;;;;;;;9.32;100.00;100613.28;4923152;29;20099;-69
2024/04/03 00:17:33;;;;;;;1.90;0.20;;;;;;;9.31;100.00;100614.22;4925309;29;20368;-69
2024/04/03 00:19:59;;;;;;;2.10;0.20;;;;;;;9.40;100.00;100603.03;4924223;29;20032;-68
2024/04/03 00:22:24;;;;;;;1.88;0.20;;;;;;;9.37;100.00;100595.50;4926245;29;20432;-69
2024/04/03 00:24:50;;;;;;;2.20;0.20;;;;;;;9.38;100.00;100589.34;4926913;29;20039;-68
2024/04/03 00:27:16;;;;;;;1.45;0.20;;;;;;;9.35;100.00;100600.00;4929664;29;20046;-68
2024/04/03 00:29:48;;;;;;;2.42;0.30;;;;;;;9.35;100.00;100594.81;4922460;29;20031;-68
2024/04/03 00:32:14;;;;;;;1.05;0.10;;;;;;;9.35;100.00;100597.41;4924064;29;20031;-68
2024/04/03 00:34:39;;;;;;;1.13;0.20;;;;;;;9.35;100.00;100594.81;4924420;29;20034;-68
2024/04/03 00:37:05;;;;;;;2.95;0.13;;;;;;;9.47;100.00;100588.50;4927196;29;20035;-68
2024/04/03 00:39:32;;;;;;;2.22;0.20;;;;;;;9.52;100.00;100586.34;4927277;29;20161;-68
2024/04/03 00:41:58;;;;;;;3.53;0.17;;;;;;;9.55;100.00;100583.47;4931648;29;20042;-68
2024/04/03 00:44:23;;;;;;;5.07;0.30;;;;;;;9.55;100.00;100585.25;4926297;29;20384;-68
2024/04/03 00:46:50;;;;;;;6.05;0.20;;;;;;;9.53;100.00;100580.16;4929105;29;20042;-69
2024/04/03 00:49:17;;;;;;;1.50;0.20;;;;;;;9.55;100.00;100580.84;4914579;29;20035;-68
2024/04/03 00:51:43;;;;;;;0.65;0.10;;;;;;;9.55;100.00;100577.44;4923336;29;20047;-68
2024/04/03 00:54:10;;;;;;;0.55;0.10;;;;;;;9.38;100.00;100573.75;4920670;29;20031;-68
2024/04/03 00:56:35;;;;;;;4.13;0.10;;;;;;;9.20;100.00;100575.31;4923429;29;20039;-68
2024/04/03 00:59:01;;;;;;;0.50;0.10;;;;;;;9.02;100.00;100584.69;4906341;29;20036;-69
2024/04/03 01:01:26;;;;;;;2.10;0.10;;;;;;;8.84;100.00;100585.34;4922030;29;20049;-68
2024/04/03 01:03:52;;;;;;;1.50;0.25;;;;;;;8.71;100.00;100589.09;4924601;29;20032;-68
2024/04/03 01:06:17;;;;;;;2.58;0.32;;;;;;;8.59;100.00;100585.75;4923002;29;20052;-69
2024/04/03 01:08:43;;;;;;;0.93;0.15;;;;;;;8.50;100.00;100594.34;4931691;29;20028;-68
2024/04/03 01:11:09;;;;;;;1.98;0.40;;;;;;;8.39;100.00;100590.03;4926135;29;20046;-68
2024/04/03 01:13:34;;;;;;;3.47;0.30;;;;;;;8.25;100.00;100592.91;4927940;29;20049;-68
2024/04/03 01:16:03;;;;;;;6.25;0.40;;;;;;;8.07;100.00;100599.59;4926021;29;20043;-68
2024/04/03 01:18:29;;;;;;;5.35;0.65;;;;;;;8.16;100.00;100598.84;4924541;29;20031;-68
2024/04/03 01:20:55;;;;;;;2.28;0.30;;;;;;;8.20;100.00;100598.47;4927258;29;20037;-68
2024/04/03 01:23:22;;;;;;;4.03;0.47;;;;;;;8.13;100.00;100606.88;4924630;29;20031;-69
2024/04/03 01:25:47;;;;;;;3.47;0.32;;;;;;;8.06;100.00;100601.38;4926293;29;20507;-69
2024/04/03 01:28:13;;;;;;;1.02;0.20;;;;;;;8.10;100.00;100594.97;4927136;29;20099;-69
2024/04/03 01:30:38;;;;;;;1.75;0.20;;;;;;;8.27;100.00;100598.78;4929181;29;20039;-68
2024/04/03 01:33:07;;;;;;;1.98;0.30;;;;;;;8.37;100.00;100601.50;4934166;29;20075;-69
2024/04/03 01:35:32;;;;;;;1.10;0.20;;;;;;;8.31;100.00;100593.22;4930820;29;20040;-69
2024/04/03 01:37:58;;;;;;;3.30;0.22;;;;;;;8.40;100.00;100604.66;4932201;29;20058;-69
2024/04/03 01:40:24;;;;;;;1.20;0.10;;;;;;;8.40;100.00;100598.66;4931505;29;20027;-68
2024/04/03 01:42:50;;;;;;;1.80;0.30;;;;;;;8.51;100.00;100599.38;4933662;29;20510;-68
2024/04/03 01:45:16;;;;;;;1.65;0.20;;;;;;;8.52;100.00;100603.63;4932372;29;20081;-68
2024/04/03 01:47:46;;;;;;;1.10;0.20;;;;;;;8.37;100.00;100607.50;4933621;29;20031;-69
2024/04/03 01:50:13;;;;;;;3.42;0.28;;;;;;;8.22;100.00;100612.16;4929127;29;20543;-69
2024/04/03 01:52:39;;;;;;;2.50;0.30;;;;;;;8.09;100.00;100613.25;4920298;29;20372;-68
2024/04/03 01:55:04;;;;;;;2.38;0.10;;;;;;;8.29;100.00;100595.13;4933257;29;20031;-69
2024/04/03 01:57:30;;;;;;;3.90;0.28;;;;;;;8.41;100.00;100593.31;4933506;29;20027;-69
2024/04/03 01:59:56;;;;;;;2.05;0.17;;;;;;;8.23;100.00;100598.22;4936911;29;20506;-68
2024/04/03 02:02:21;;;;;;;1.17;0.15;;;;;;;8.06;100.00;100597.94;4928221;29;20036;-69
2024/04/03 02:04:47;;;;;;;1.60;0.30;;;;;;;8.27;100.00;100591.84;4935017;29;20067;-68
2024/04/03 02:07:12;;;;;;;3.60;0.35;;;;;;;8.43;100.00;100595.78;4929431;29;20062;-69
2024/04/03 02:09:38;;;;;;;3.80;0.10;;;;;;;8.46;100.00;100595.53;4932238;29;20032;-69
2024/04/03 02:12:05;;;;;;;5.10;0.20;;;;;;;8.47;100.00;100598.00;4931015;29;20423;-69
2024/04/03 02:14:31;;;;;;;3.30;0.10;;;;;;;8.36;100.00;100598.06;4933162;29;20032;-68
2024/04/03 02:16:56;;;;;;;5.43;0.30;;;;;;;8.26;100.00;100590.19;4932131;29;20036;-68
2024/04/03 02:19:22;;;;;;;4.03;0.10;;;;;;;8.34;100.00;100591.34;4932102;29;20032;-69
2024/04/03 02:21:48;;;;;;;3.50;0.10;;;;;;;8.44;100.00;100602.63;4931074;29;20063;-68
2024/04/03 02:24:13;;;;;;;3.35;0.22;;;;;;;8.55;100.00;100595.56;4931934;29;20495;-68
2024/04/03 02:26:39;;;;;;;2.35;0.30;;;;;;;8.49;100.00;100590.09;4934581;29;20561;-69
2024/04/03 02:29:04;;;;;;;2.53;0.25;;;;;;;8.32;100.00;100601.84;4934602;29;20036;-69
2024/04/03 02:31:30;;;;;;;6.72;0.45;;;;;;;8.16;100.00;100599.66;4931640;29;20031;-68
2024/04/03 02:33:56;;;;;;;1.05;0.30;;;;;;;7.92;100.00;100601.69;4932707;29;20042;-69
2024/04/03 02:36:21;;;;;;;2.03;0.30;;;;;;;7.82;100.00;100590.41;4926879;29;20040;-68
2024/04/03 02:38:50;;;;;;;1.05;0.20;;;;;;;7.78;100.00;100592.41;4925157;29;20094;-68
2024/04/03 02:41:16;;;;;;;5.20;0.63;;;;;;;7.73;100.00;100594.56;4925018;29;20040;-68
2024/04/03 02:43:42;;;;;;;4.15;0.50;;;;;;;7.65;100.00;100600.34;4925769;29;20049;-68
2024/04/03 02:46:07;;;;;;;0.82;0.20;;;;;;;7.60;100.00;100593.88;4925830;29;20031;-68
2024/04/03 02:48:33;;;;;;;4.60;0.40;;;;;;;7.60;100.00;100588.69;4926529;29;20038;-68
2024/04/03 02:51:04;;;;;;;4.75;0.30;;;;;;;7.58;100.00;100593.16;4926629;29;20396;-68
2024/04/03 02:53:31;;;;;;;1.90;0.30;;;;;;;7.57;100.00;100597.53;4925628;29;20104;-69
2024/04/03 02:56:00;;;;;;;0.52;0.10;;;;;;;7.78;100.00;100599.38;4923411;29;20027;-68
2024/04/03 02:58:26;;;;;;;1.08;0.20;;;;;;;7.87;100.00;100603.81;4925466;29;20102;-68
2024/04/03 03:01:02;;;;;;;4.32;0.20;;;;;;;7.81;100.00;100601.72;4925310;29;20392;-69
2024/04/03 03:03:29;;;;;;;1.27;0.30;;;;;;;7.74;100.00;100606.56;4931197;29;20023;-69
2024/04/03 03:06:05;;;;;;;0.80;0.20;;;;;;;7.55;100.00;100601.22;4931371;29;20059;-68
2024/04/03 03:08:32;;;;;;;4.05;0.50;;;;;;;7.52;100.00;100599.69;4931707;29;20058;-69
2024/04/03 03:11:00;;;;;;;2.15;0.40;;;;;;;7.56;100.00;100605.47;4934235;29;20031;-68
2024/04/03 03:13:26;;;;;;;2.75;0.30;;;;;;;7.67;100.00;100602.81;4931485;29;20027;-69
2024/04/03 03:16:00;;;;;;;0.45;0.17;;;;;;;7.86;100.00;100613.38;4930427;29;20031;-69
2024/04/03 03:18:30;;;;;;;6.47;0.10;;;;;;;8.13;100.00;100609.47;4931900;29;20044;-69
2024/04/03 03:20:56;;;;;;;4.57;0.20;;;;;;;8.15;100.00;100611.00;4924323;29;20496;-69
2024/04/03 03:23:22;;;;;;;1.48;0.30;;;;;;;8.07;100.00;100609.97;4924691;29;21035;-68
2024/04/03 03:25:51;;;;;;;2.78;0.22;;;;;;;8.12;100.00;100606.06;4924728;29;20114;-68
2024/04/03 03:28:17;;;;;;;2.17;0.15;;;;;;;8.26;100.00;100605.75;4923835;29;20440;-68
2024/04/03 03:30:47;;;;;;;4.45;0.20;;;;;;;8.34;100.00;100604.34;4925763;29;20044;-69
2024/04/03 03:33:12;;;;;;;4.18;0.20;;;;;;;8.30;100.00;100596.78;4924603;29;20118;-69
2024/04/03 03:35:38;;;;;;;3.03;0.10;;;;;;;8.36;100.00;100605.84;4926683;29;20476;-68
2024/04/03 03:38:03;;;;;;;2.42;0.17;;;;;;;8.46;100.00;100603.34;4928442;29;20043;-69
2024/04/03 03:40:31;;;;;;;3.58;0.20;;;;;;;8.52;100.00;100600.19;4924746;29;20031;-69
2024/04/03 03:42:57;;;;;;;3.40;0.10;;;;;;;8.54;100.00;100601.72;4924398;29;20036;-69
2024/04/03 03:45:22;;;;;;;1.48;0.10;;;;;;;8.54;100.00;100608.69;4924450;29;20058;-69
2024/04/03 03:47:48;;;;;;;1.20;0.20;;;;;;;8.51;100.00;100606.34;4925483;29;20472;-68
2024/04/03 03:52:59;;;;;;;1.45;0.20;;;;;;;8.50;100.00;100610.75;4932172;29;20127;-68
2024/04/03 03:55:31;;;;;;;8.77;0.73;;;;;;;8.56;100.00;100611.97;4930850;29;20134;-68
2024/04/03 03:57:58;;;;;;;0.77;0.20;;;;;;;8.61;100.00;100604.63;4931704;29;20571;-68
2024/04/03 04:00:24;;;;;;;2.95;0.10;;;;;;;8.61;100.00;100602.84;4929756;29;20400;-68
2024/04/03 04:02:51;;;;;;;0.32;0.05;;;;;;;8.58;100.00;100610.06;4930857;29;20035;-69
2024/04/03 04:05:18;;;;;;;3.45;0.30;;;;;;;8.57;100.00;100609.25;4930833;29;20047;-69
2024/04/03 04:07:43;;;;;;;5.45;0.15;;;;;;;8.59;100.00;100603.94;4930777;29;20067;-69
2024/04/03 04:10:09;;;;;;;7.20;0.20;;;;;;;8.61;100.00;100600.25;4931062;29;20464;-68
2024/04/03 04:12:35;;;;;;;0.77;0.10;;;;;;;8.50;100.00;100604.72;4931372;29;20032;-69
2024/04/03 04:15:00;;;;;;;5.40;0.70;;;;;;;8.32;100.00;100597.50;4929515;29;20505;-68
2024/04/03 04:17:25;;;;;;;1.42;0.40;;;;;;;8.14;100.00;100595.56;4931184;29;20035;-68
2024/04/03 04:19:51;;;;;;;6.13;0.50;;;;;;;7.99;100.00;100598.47;4925796;29;20051;-68
2024/04/03 04:22:17;;;;;;;0.98;0.22;;;;;;;7.90;100.00;100598.38;4929894;29;20043;-68
2024/04/03 04:24:45;;;;;;;8.13;0.77;;;;;;;7.77;100.00;100592.53;4923391;29;20521;-69
2024/04/03 04:27:12;;;;;;;4.32;0.40;;;;;;;7.62;100.00;100591.97;4928548;29;20039;-68
2024/04/03 04:29:40;;;;;;;7.03;0.60;;;;;;;7.60;100.00;100580.91;4930703;29;20377;-69
2024/04/03 04:32:06;;;;;;;4.00;0.68;;;;;;;7.61;100.00;100578.19;4927666;29;20492;-68
2024/04/03 04:34:32;;;;;;;4.55;0.70;;;;;;;7.65;100.00;100571.00;4927424;29;20098;-69
2024/04/03 04:36:58;;;;;;;2.38;0.85;;;;;;;7.72;100.00;100573.91;4928655;29;20039;-68
2024/04/03 04:39:23;;;;;;;2.90;0.20;;;;;;;7.90;100.00;100575.03;4929061;29;20131;-69
2024/04/03 04:41:50;;;;;;;0.50;0.30;;;;;;;8.08;100.00;100578.72;4927312;29;20472;-68
2024/04/03 04:44:16;;;;;;;7.05;0.40;;;;;;;8.30;100.00;100576.00;4928891;29;20036;-69
2024/04/03 04:46:42;;;;;;;6.38;0.30;;;;;;;8.45;100.00;100573.13;4930231;29;20035;-68
2024/04/03 04:49:07;;;;;;;2.85;0.20;;;;;;;8.47;100.00;100576.41;4932744;29;20063;-68
2024/04/03 04:51:33;;;;;;;6.88;0.32;;;;;;;8.49;100.00;100574.50;4923771;29;20166;-69
2024/04/03 04:53:58;;;;;;;5.40;0.50;;;;;;;8.55;100.00;100586.97;4924353;29;20476;-69
2024/04/03 04:56:23;;;;;;;3.75;0.30;;;;;;;8.56;100.00;100581.63;4923118;29;20094;-68
2024/04/03 04:58:50;;;;;;;4.47;0.22;;;;;;;8.57;100.00;100583.28;4922985;29;20051;-68
2024/04/03 05:01:16;;;;;;;4.70;0.30;;;;;;;8.59;100.00;100589.16;4922579;29;20459;-68
2024/04/03 05:03:42;;;;;;;5.22;0.20;;;;;;;8.60;100.00;100588.22;4924232;29;20042;-68
2024/04/03 05:06:14;;;;;;;4.45;0.20;;;;;;;8.61;100.00;100596.84;4922121;29;20051;-67
2024/04/03 05:08:40;;;;;;;0.95;0.10;;;;;;;8.58;100.00;100597.09;4927561;29;20051;-68
2024/04/03 05:11:05;;;;;;;1.23;0.20;;;;;;;8.54;100.00;100598.28;4932313;29;20106;-67
2024/04/03 05:13:34;;;;;;;3.22;0.40;;;;;;;8.58;100.00;100597.91;4922725;29;20063;-68
2024/04/03 05:16:09;;;;;;;1.65;0.10;;;;;;;8.61;100.00;100604.63;4922485;29;20043;-68
2024/04/03 05:18:35;;;;;;;1.00;0.15;;;;;;;8.68;100.00;100604.94;4923876;29;20035;-68
2024/04/03 05:21:02;;;;;;;8.00;0.73;;;;;;;8.69;100.00;100584.03;4922676;29;20089;-69
2024/04/03 05:23:29;;;;;;;2.05;0.20;;;;;;;8.71;100.00;100586.50;4920699;29;20081;-68
2024/04/03 05:26:03;;;;;;;6.97;0.82;;;;;;;8.74;100.00;100584.47;4923987;29;20043;-68
2024/04/03 05:28:32;;;;;;;3.53;0.20;;;;;;;8.81;100.00;100588.19;4922265;29;20044;-68
2024/04/03 05:31:06;;;;;;;3.58;0.47;;;;;;;8.88;100.00;100591.91;4923294;29;20583;-68
2024/04/03 05:33:32;;;;;;;7.43;0.30;;;;;;;8.94;100.00;100596.59;4924480;29;20047;-68
2024/04/03 05:35:59;;;;;;;5.47;0.30;;;;;;;8.93;100.00;100592.34;4923594;29;20134;-68
2024/04/03 05:38:25;;;;;;;4.10;0.50;;;;;;;8.97;100.00;100595.53;4921218;29;20175;-68
2024/04/03 05:40:51;;;;;;;10.15;0.75;;;;;;;9.04;100.00;100608.78;4923312;29;20510;-68
2024/04/03 05:43:17;;;;;;;4.10;0.28;;;;;;;9.05;100.00;100602.63;4922027;29;20257;-68
2024/04/03 05:45:43;;;;;;;3.17;0.30;;;;;;;9.09;100.00;100604.00;4922386;29;20036;-68
2024/04/03 05:48:08;;;;;;;8.18;0.40;;;;;;;9.13;100.00;100605.41;4922957;29;20471;-68
2024/04/03 05:50:34;;;;;;;9.88;0.20;;;;;;;9.17;100.00;100614.59;4923794;29;20383;-69
2024/04/03 05:53:00;;;;;;;4.07;0.20;;;;;;;9.24;100.00;100615.69;4922525;29;20186;-68
2024/04/03 05:55:25;;;;;;;3.33;0.45;;;;;;;9.27;100.00;100623.25;4929990;29;20643;-68
2024/04/03 05:57:51;;;;;;;1.52;0.20;;;;;;;9.32;100.00;100624.50;4931948;29;20038;-68
2024/04/03 06:00:16;;;;;;;2.88;0.20;;;;;;;9.34;100.00;100623.53;4929838;29;20617;-67
2024/04/03 06:02:42;;;;;;;2.33;0.20;;;;;;;9.38;100.00;100623.16;4933535;29;20138;-67
2024/04/03 06:05:07;;;;;;;3.17;0.25;;;;;;;9.39;100.00;100629.16;4928966;29;20526;-67
2024/04/03 06:07:34;;;;;;;4.38;0.22;;;;;;;9.41;100.00;100635.88;4927589;29;20514;-67
2024/04/03 06:10:01;;;;;;;3.83;0.20;;;;;;;9.43;100.00;100639.19;4927016;29;20039;-67
2024/04/03 06:12:26;;;;;;;3.80;0.40;;;;;;;9.48;100.00;100636.97;4926084;29;20035;-68
2024/04/03 06:14:52;;;;;;;1.20;0.10;;;;;;;9.56;100.00;100638.91;4929996;29;20098;-69
2024/04/03 06:17:17;;;;;;;1.17;0.10;;;;;;;9.59;100.00;100628.25;4926142;29;20106;-68
2024/04/03 06:19:43;;;;;;;3.05;0.40;;;;;;;9.61;100.00;100632.34;4934944;29;20164;-69
2024/04/03 06:22:09;;;;;;;4.63;0.20;;;;;;;9.67;100.00;100633.59;4933113;29;20372;-68
2024/04/03 06:24:34;;;;;;;1.67;0.30;;;;;;;9.73;100.00;100634.84;4934347;29;20039;-69
2024/04/03 06:27:00;;;;;;;4.07;0.20;;;;;;;9.76;100.00;100644.97;4931592;29;20126;-68
2024/04/03 06:29:25;;;;;;;1.15;0.10;;;;;;;9.77;100.00;100641.41;4929394;29;20036;-69
2024/04/03 06:31:52;;;;;;;3.70;0.20;;;;;;;9.81;100.00;100645.41;4936249;29;20063;-68
2024/04/03 06:34:18;;;;;;;3.72;0.20;;;;;;;9.86;100.00;100646.66;4929590;29;20039;-68
2024/04/03 06:36:44;;;;;;;2.13;0.20;;;;;;;9.91;100.00;100648.84;4931466;29;20038;-67
2024/04/03 06:39:09;;;;;;;2.85;0.20;;;;;;;10.00;100.00;100653.22;4928380;29;20040;-69
2024/04/03 06:41:35;;;;;;;9.93;0.40;;;;;;;10.11;100.00;100655.69;4929154;29;20027;-68
2024/04/03 06:44:00;;;;;;;3.83;0.20;;;;;;;10.18;100.00;100656.78;4928028;29;20071;-68
2024/04/03 06:46:26;;;;;;;2.97;0.30;;;;;;;10.25;100.00;100652.72;4931824;29;20463;-68
2024/04/03 06:48:51;;;;;;;3.78;0.20;;;;;;;10.29;100.00;100656.69;4930668;29;20075;-68
2024/04/03 06:51:17;;;;;;;3.83;0.22;;;;;;;10.29;100.00;100651.47;4932218;29;20106;-68
2024/04/03 06:53:42;;;;;;;5.30;0.20;;;;;;;10.33;100.00;100653.81;4930087;29;20183;-68
2024/04/03 06:56:08;;;;;;;4.15;0.20;;;;;;;10.44;100.00;100661.44;4927948;29;20032;-68
2024/04/03 06:58:41;;;;;;;4.32;0.20;;;;;;;10.48;100.00;100661.03;4932435;29;20150;-68
2024/04/03 07:01:09;;;;;;;8.55;0.50;;;;;;;10.49;100.00;100669.66;4929632;29;20124;-68
2024/04/03 07:03:34;;;;;;;8.77;0.30;;;;;;;10.57;100.00;100675.00;4925738;29;20035;-68
2024/04/03 07:06:00;;;;;;;4.82;0.20;;;;;;;10.61;100.00;100668.56;4925631;29;20058;-68
2024/04/03 07:08:27;;;;;;;1.67;0.10;;;;;;;10.70;100.00;100675.53;4928733;29;20399;-68
2024/04/03 07:10:53;;;;;;;2.47;0.22;;;;;;;10.72;100.00;100681.44;4929307;29;20106;-68
2024/04/03 07:13:18;;;;;;;7.28;0.25;;;;;;;10.71;99.14;100677.19;4926813;29;20043;-68
2024/04/03 07:15:48;;;;;;;4.18;0.20;;;;;;;10.76;100.00;100688.03;4931995;29;20086;-68
2024/04/03 07:18:14;;;;;;;2.75;0.30;;;;;;;10.98;100.00;100687.66;4929478;29;20032;-68
2024/04/03 07:20:40;;;;;;;6.43;0.20;;;;;;;11.16;100.00;100686.94;4930992;29;20035;-67
2024/04/03 07:23:06;;;;;;;5.75;0.40;;;;;;;11.29;99.97;100684.84;4931092;29;20484;-67
2024/04/03 07:25:32;;;;;;;10.57;0.30;;;;;;;11.35;100.00;100693.84;4932657;29;20095;-67
2024/04/03 07:28:11;;;;;;;5.13;0.30;;;;;;;11.33;98.11;100686.19;4934074;29;20028;-68
2024/04/03 07:30:39;;;;;;;1.13;0.20;;;;;;;11.58;98.54;100690.72;4931421;29;20036;-67
2024/04/03 07:33:05;;;;;;;6.32;0.28;;;;;;;11.70;96.49;100698.38;4933267;29;20371;-69
2024/04/03 07:35:31;;;;;;;1.00;0.20;;;;;;;11.76;95.77;100692.56;4927109;29;20034;-69
2024/04/03 07:37:56;;;;;;;3.33;0.20;;;;;;;12.04;95.99;100691.56;4924314;29;20039;-69
2024/04/03 07:40:22;;;;;;;5.03;0.93;;;;;;;12.18;95.57;100692.84;4932858;29;20440;-68
2024/04/03 07:42:48;;;;;;;3.55;0.15;;;;;;;12.26;95.83;100698.97;4932844;29;20036;-68
2024/04/03 07:45:14;;;;;;;1.55;0.20;;;;;;;12.35;94.31;100699.84;4930604;29;20122;-68
2024/04/03 07:47:39;;;;;;;4.28;0.20;;;;;;;12.26;93.13;100706.00;4933976;29;20363;-68
2024/04/03 07:50:06;;;;;;;5.68;0.20;;;;;;;12.28;94.59;100704.88;4932180;29;20036;-68
2024/04/03 07:52:38;;;;;;;6.65;0.20;;;;;;;12.35;94.37;100709.47;4909241;29;20032;-68
2024/04/03 07:55:07;;;;;;;1.95;0.20;;;;;;;12.43;92.32;100699.09;4933770;29;20055;-68
2024/04/03 07:57:34;;;;;;;3.83;0.17;;;;;;;12.52;93.84;100706.84;4926177;29;20040;-68
2024/04/03 08:00:03;;;;;;;1.17;0.40;;;;;;;12.57;90.93;100715.06;4933594;29;20031;-69
2024/04/03 08:02:29;;;;;;;3.85;0.13;;;;;;;12.63;91.51;100716.25;4931395;29;20046;-69
2024/04/03 08:04:54;;;;;;;1.67;0.10;;;;;;;12.68;96.04;100715.81;4930525;29;20032;-68
2024/04/03 08:07:20;;;;;;;3.85;0.25;;;;;;;12.68;96.30;100715.81;4931467;29;20507;-68
2024/04/03 08:09:47;;;;;;;8.38;0.20;;;;;;;12.78;98.09;100714.72;4932528;29;20392;-69
2024/04/03 08:12:13;;;;;;;2.60;0.10;;;;;;;12.86;96.95;100713.97;4930435;29;20035;-69
2024/04/03 08:14:38;;;;;;;4.57;0.20;;;;;;;13.05;99.59;100715.56;4930298;29;20042;-68
2024/04/03 08:17:04;;;;;;;3.03;0.10;;;;;;;13.05;99.23;100716.38;4931762;29;20074;-69
2024/04/03 08:19:30;;;;;;;2.38;0.30;;;;;;;13.03;98.14;100720.13;4931250;29;20471;-68
2024/04/03 08:21:55;;;;;;;2.22;0.10;;;;;;;13.09;100.00;100720.34;4928004;29;20042;-69
2024/04/03 08:24:21;;;;;;;2.22;0.20;;;;;;;13.08;100.00;100717.88;4930803;29;20035;-69
2024/04/03 08:26:46;;;;;;;2.60;0.10;;;;;;;13.02;100.00;100714.06;4931147;29;20035;-68
2024/04/03 08:29:12;;;;;;;3.03;0.10;;;;;;;12.98;100.00;100717.97;4932006;29;20043;-68
2024/04/03 08:31:38;;;;;;;2.25;0.10;;;;;;;13.01;100.00;100716.84;4915183;29;20032;-68
2024/04/03 08:34:03;;;;;;;4.53;0.20;;;;;;;13.10;100.00;100719.34;4930471;29;20035;-68
2024/04/03 08:36:29;;;;;;;1.20;0.10;;;;;;;13.02;98.33;100713.25;4926617;29;20039;-68
2024/04/03 08:38:54;;;;;;;1.40;0.10;;;;;;;13.12;100.00;100716.59;4932546;29;20040;-68
2024/04/03 08:41:20;;;;;;;4.40;0.13;;;;;;;13.29;100.00;100707.84;4929424;29;20111;-67
2024/04/03 08:43:51;;;;;;;1.58;0.10;;;;;;;13.44;100.00;100710.72;4930529;29;20043;-68
2024/04/03 08:46:18;;;;;;;3.60;0.10;;;;;;;13.49;100.00;100711.88;4929004;29;20518;-68
2024/04/03 08:48:46;;;;;;;3.67;0.08;;;;;;;13.49;100.00;100705.84;4934358;29;20070;-69
2024/04/03 08:51:14;;;;;;;4.32;0.10;;;;;;;13.52;100.00;100710.75;4930127;29;20040;-68
2024/04/03 08:53:43;;;;;;;3.65;0.20;;;;;;;13.49;100.00;100711.88;4931206;29;20035;-68
2024/04/03 08:56:09;;;;;;;2.53;0.20;;;;;;;13.46;100.00;100717.44;4930359;29;20095;-68
2024/04/03 08:58:35;;;;;;;3.10;0.10;;;;;;;13.46;100.00;100727.09;4931048;29;20036;-69
2024/04/03 09:01:02;;;;;;;3.72;0.20;;;;;;;13.43;100.00;100720.38;4931606;29;20036;-68
2024/04/03 09:03:28;;;;;;;4.60;0.40;;;;;;;13.25;100.00;100730.06;4928383;29;20039;-69
2024/04/03 09:05:53;;;;;;;2.42;0.20;;;;;;;13.17;100.00;100732.69;4931581;29;20056;-69
2024/04/03 09:08:19;;;;;;;1.58;0.10;;;;;;;13.07;98.10;100732.75;4931225;29;20031;-68
2024/04/03 09:10:54;;;;;;;5.57;0.10;;;;;;;13.12;100.00;100729.66;4929739;29;20060;-71
2024/04/03 09:13:20;;;;;;;1.63;0.10;;;;;;;13.09;100.00;100729.97;4931236;29;20057;-68
2024/04/03 09:15:54;;;;;;;5.93;0.38;;;;;;;13.11;100.00;100734.06;4931643;29;20504;-68
2024/04/03 09:18:20;;;;;;;3.90;0.03;;;;;;;13.29;100.00;100742.69;4926801;29;20023;-67
2024/04/03 09:20:50;;;;;;;3.45;0.10;;;;;;;13.45;100.00;100751.63;4931039;29;20476;-68
2024/04/03 09:23:17;;;;;;;4.13;0.32;;;;;;;13.58;100.00;100744.16;4930315;29;20036;-68
2024/04/03 09:25:43;;;;;;;1.45;0.10;;;;;;;13.74;100.00;100752.06;4941650;29;20484;-68
2024/04/03 09:28:10;;;;;;;1.42;0.00;;;;;;;13.77;100.00;100743.06;4934569;29;20035;-68
2024/04/03 09:30:40;;;;;;;0.75;0.10;;;;;;;13.81;100.00;100741.78;4932334;29;20064;-68
2024/04/03 09:33:05;;;;;;;3.35;0.20;;;;;;;13.82;100.00;100757.34;4934443;29;20054;-68
2024/04/03 09:35:35;;;;;;;2.22;0.08;;;;;;;13.76;100.00;100754.53;4936152;29;20463;-69
2024/04/03 09:38:02;;;;;;;2.25;0.20;;;;;;;13.73;100.00;100760.06;4942637;29;20213;-69
2024/04/03 09:40:30;;;;;;;0.20;0.00;;;;;;;13.76;100.00;100754.53;4934447;29;20042;-68
2024/04/03 09:42:58;;;;;;;3.00;0.10;;;;;;;13.78;100.00;100745.53;4935677;29;20035;-68
2024/04/03 09:45:24;;;;;;;1.63;0.10;;;;;;;13.74;100.00;100746.00;4934150;29;20032;-68
2024/04/03 09:47:57;;;;;;;2.83;0.00;;;;;;;13.57;100.00;100748.56;4932232;29;20027;-68
2024/04/03 09:50:26;;;;;;;1.88;0.05;;;;;;;13.49;95.39;100747.72;4934615;29;20083;-68
2024/04/03 09:52:53;;;;;;;1.00;0.10;;;;;;;13.49;99.73;100748.53;4935356;29;20039;-68
2024/04/03 09:55:22;;;;;;;0.82;0.10;;;;;;;13.45;100.00;100747.22;4934309;29;20066;-69
2024/04/03 09:57:48;;;;;;;2.90;0.10;;;;;;;13.42;100.00;100744.91;4933514;29;20044;-68
2024/04/03 10:00:13;;;;;;;0.90;0.00;;;;;;;13.36;100.00;100742.91;4934923;29;20369;-68
2024/04/03 10:02:50;;;;;;;1.90;0.10;;;;;;;13.15;100.00;100735.41;4934048;29;20038;-68
2024/04/03 10:05:19;;;;;;;2.80;0.10;;;;;;;13.04;100.00;100742.69;4931545;29;20044;-68
2024/04/03 10:08:02;;;;;;;3.35;0.00;;;;;;;12.84;100.00;100740.25;4932194;29;20043;-69
2024/04/03 10:10:29;;;;;;;3.10;0.10;;;;;;;12.77;100.00;100738.41;4939230;29;20043;-69
2024/04/03 10:13:01;;;;;;;0.80;0.08;;;;;;;12.72;100.00;100738.06;4936436;29;20405;-68
2024/04/03 10:15:27;;;;;;;1.27;0.10;;;;;;;12.77;100.00;100738.41;4937543;29;20452;-69
2024/04/03 10:18:01;;;;;;;1.73;0.00;;;;;;;12.95;100.00;100733.97;4934351;29;20069;-69
2024/04/03 10:20:39;;;;;;;5.53;0.10;;;;;;;13.04;100.00;100734.84;4934297;29;20091;-69
2024/04/03 10:23:09;;;;;;;9.65;0.10;;;;;;;13.04;100.00;100735.66;4917808;29;20047;-68
2024/04/03 10:25:39;;;;;;;1.45;0.00;;;;;;;12.92;100.00;100729.03;4936099;29;20059;-68
2024/04/03 10:28:12;;;;;;;3.33;0.10;;;;;;;12.76;100.00;100728.94;4928513;29;20403;-69
2024/04/03 10:30:37;;;;;;;1.10;0.10;;;;;;;12.69;100.00;100720.88;4927733;29;20119;-68
2024/04/03 10:33:07;;;;;;;0.40;0.05;;;;;;;12.60;100.00;100714.78;4932778;29;20114;-69
2024/04/03 10:35:33;;;;;;;0.20;0.10;;;;;;;12.67;100.00;100722.81;4932411;29;20030;-68
2024/04/03 10:37:59;;;;;;;1.98;0.10;;;;;;;12.75;100.00;100722.06;4933352;29;20166;-68
2024/04/03 10:40:26;;;;;;;0.60;0.00;;;;;;;12.87;100.00;100720.81;4939565;29;20128;-68
2024/04/03 10:42:51;;;;;;;0.25;0.08;;;;;;;13.03;100.00;100709.66;4939341;29;20042;-69
2024/04/03 10:45:18;;;;;;;1.45;0.10;;;;;;;13.13;100.00;100711.19;4932467;29;20399;-68
2024/04/03 10:47:43;;;;;;;2.63;0.10;;;;;;;13.15;100.00;100709.25;4932416;29;20490;-69
2024/04/03 10:50:10;;;;;;;0.30;0.10;;;;;;;13.27;100.00;100717.66;4927798;29;20032;-68
2024/04/03 10:52:36;;;;;;;0.63;0.03;;;;;;;13.41;100.00;100719.69;4927203;29;20095;-66
2024/04/03 10:55:02;;;;;;;3.72;0.17;;;;;;;13.49;100.00;100709.28;4930326;29;20032;-66
2024/04/03 10:57:27;;;;;;;5.97;0.20;;;;;;;13.49;100.00;100709.28;4931705;29;20042;-66
2024/04/03 10:59:57;;;;;;;5.95;0.10;;;;;;;13.52;100.00;100700.28;4929838;29;20036;-66
2024/04/03 11:02:22;;;;;;;6.22;0.20;;;;;;;13.57;100.00;100704.06;4931451;29;20042;-66
2024/04/03 11:04:49;;;;;;;9.68;1.48;;;;;;;13.63;100.00;100707.03;4932313;29;20027;-66
2024/04/03 11:07:14;;;;;;;4.93;0.85;;;;;;;13.67;100.00;100708.38;4931695;29;20075;-66
2024/04/03 11:09:40;;;;;;;5.70;0.60;;;;;;;13.68;100.00;100710.00;4933908;29;20055;-66
2024/04/03 11:12:10;;;;;;;2.38;0.30;;;;;;;13.68;100.00;100704.78;4934702;29;20075;-66
2024/04/03 11:14:36;;;;;;;2.60;0.30;;;;;;;13.63;100.00;100701.81;4930346;29;20028;-66
2024/04/03 11:17:04;;;;;;;4.10;0.50;;;;;;;13.61;100.00;100700.16;4932760;29;20040;-66
2024/04/03 11:19:29;;;;;;;1.35;0.20;;;;;;;13.62;100.00;100695.75;4931436;29;20036;-66
2024/04/03 11:21:55;;;;;;;1.45;0.20;;;;;;;13.64;100.00;100692.97;4932912;29;20046;-67